createdAt,value
2022-08-06T00:00:11.408Z,8.60
2022-08-06T00:02:43.912Z,8.00
2022-08-06T00:05:17.802Z,5.62
2022-08-06T00:07:51.280Z,6.45
2022-08-06T00:10:29.923Z,5.47
2022-08-06T00:13:04.889Z,6.37
2022-08-06T00:16:09.305Z,5.47
2022-08-06T00:18:25.109Z,6.47
2022-08-06T00:20:54.583Z,6.00
2022-08-06T00:23:52.662Z,5.90
2022-08-06T00:26:17.981Z,6.18
2022-08-06T00:28:49.991Z,8.43
2022-08-06T00:31:19.638Z,7.00
2022-08-06T00:33:57.634Z,6.60
2022-08-06T00:36:30.429Z,5.85
2022-08-06T00:39:07.469Z,6.37
2022-08-06T00:41:41.835Z,5.90
2022-08-06T00:44:14.431Z,7.07
2022-08-06T00:49:48.146Z,6.20
2022-08-06T00:52:05.775Z,7.12
2022-08-06T00:54:38.141Z,5.28
2022-08-06T00:57:11.909Z,7.75
2022-08-06T00:59:43.446Z,6.28
2022-08-06T01:02:17.389Z,7.03
2022-08-06T01:04:47.921Z,8.45
2022-08-06T01:07:22.184Z,5.72
2022-08-06T01:09:57.841Z,5.60
2022-08-06T01:12:33.515Z,5.90
2022-08-06T01:15:16.062Z,5.70
2022-08-06T01:18:04.413Z,6.60
2022-08-06T01:21:56.516Z,4.90
2022-08-06T01:24:14.301Z,7.95
2022-08-06T01:26:54.272Z,6.03
2022-08-06T01:29:34.832Z,5.25
2022-08-06T01:32:11.482Z,6.22
2022-08-06T01:35:13.571Z,5.07
2022-08-06T01:38:03.219Z,7.80
2022-08-06T01:40:37.671Z,9.35
2022-08-06T01:44:04.809Z,8.82
2022-08-06T01:46:04.261Z,7.20
2022-08-06T01:48:36.083Z,6.18
2022-08-06T01:52:11.569Z,8.07
2022-08-06T01:54:07.298Z,7.93
2022-08-06T01:56:57.242Z,7.10
2022-08-06T01:59:34.421Z,6.80
2022-08-06T02:02:09.392Z,6.78
2022-08-06T02:04:42.114Z,6.53
2022-08-06T02:08:33.995Z,6.43
2022-08-06T02:10:10.160Z,5.30
2022-08-06T02:12:42.324Z,5.95
2022-08-06T02:15:19.735Z,5.62
2022-08-06T02:18:06.270Z,5.30
2022-08-06T02:20:52.779Z,5.93
2022-08-06T02:23:25.116Z,6.68
2022-08-06T02:26:04.658Z,5.95
2022-08-06T02:28:35.384Z,7.62
2022-08-06T02:31:15.763Z,7.30
2022-08-06T02:34:02.510Z,6.87
2022-08-06T02:36:50.653Z,6.03
2022-08-06T02:39:29.994Z,8.35
2022-08-06T02:42:29.849Z,7.75
2022-08-06T02:45:35.810Z,7.05
2022-08-06T02:48:22.390Z,6.85
2022-08-06T02:51:29.580Z,6.30
2022-08-06T02:54:04.255Z,9.68
2022-08-06T02:56:42.675Z,6.18
2022-08-06T02:59:19.196Z,4.93
2022-08-06T03:01:54.967Z,6.25
2022-08-06T03:04:32.397Z,9.35
2022-08-06T03:07:26.430Z,5.68
2022-08-06T03:09:58.581Z,5.55
2022-08-06T03:12:31.294Z,6.95
2022-08-06T03:15:09.833Z,6.75
2022-08-06T03:17:42.642Z,8.80
2022-08-06T03:20:18.053Z,6.62
2022-08-06T03:22:50.754Z,6.43
2022-08-06T03:25:23.928Z,7.37
2022-08-06T03:28:02.121Z,7.60
2022-08-06T03:30:34.391Z,5.85
2022-08-06T03:33:28.968Z,7.85
2022-08-06T03:36:07.641Z,10.38
2022-08-06T03:38:48.323Z,10.82
2022-08-06T03:41:34.880Z,8.15
2022-08-06T03:44:11.777Z,6.45
2022-08-06T03:46:54.983Z,5.53
2022-08-06T03:49:40.843Z,6.77
2022-08-06T03:52:15.915Z,5.62
2022-08-06T03:54:48.792Z,8.15
2022-08-06T03:57:29.367Z,5.80
2022-08-06T04:00:04.599Z,6.50
2022-08-06T04:02:48.100Z,8.25
2022-08-06T04:05:25.493Z,6.68
2022-08-06T04:08:03.596Z,8.05
2022-08-06T04:10:42.921Z,6.32
2022-08-06T04:14:05.896Z,5.32
2022-08-06T04:16:29.799Z,6.55
2022-08-06T04:19:08.922Z,7.15
2022-08-06T04:22:59.105Z,7.00
2022-08-06T04:24:30.356Z,6.75
2022-08-06T04:27:09.679Z,7.85
2022-08-06T04:29:50.837Z,8.02
2022-08-06T04:32:29.053Z,6.70
2022-08-06T04:36:08.036Z,7.87
2022-08-06T04:37:54.320Z,7.97
2022-08-06T04:40:35.236Z,6.75
2022-08-06T04:43:13.294Z,7.82
2022-08-06T04:46:17.286Z,9.05
2022-08-06T04:48:40.193Z,5.90
2022-08-06T04:52:34.292Z,6.05
2022-08-06T04:54:12.124Z,5.47
2022-08-06T04:56:49.933Z,6.35
2022-08-06T04:59:22.289Z,9.73
2022-08-06T05:01:57.606Z,7.53
2022-08-06T05:04:32.336Z,6.62
2022-08-06T05:09:43.946Z,5.30
2022-08-06T05:12:29.201Z,7.78
2022-08-06T05:15:10.145Z,9.65
2022-08-06T05:17:48.617Z,5.45
2022-08-06T05:20:27.439Z,6.25
2022-08-06T05:23:09.005Z,6.20
2022-08-06T05:25:53.921Z,6.40
2022-08-06T05:28:27.795Z,8.10
2022-08-06T05:30:58.993Z,8.88
2022-08-06T05:33:39.042Z,6.93
2022-08-06T05:36:19.845Z,6.62
2022-08-06T05:38:59.144Z,7.82
2022-08-06T05:41:33.621Z,7.82
2022-08-06T05:44:08.171Z,5.80
2022-08-06T05:49:55.408Z,6.60
2022-08-06T05:52:31.009Z,6.60
2022-08-06T05:55:11.175Z,7.05
2022-08-06T05:57:56.687Z,8.73
2022-08-06T06:00:43.112Z,8.68
2022-08-06T06:03:25.272Z,6.55
2022-08-06T06:06:04.090Z,9.25
2022-08-06T06:08:55.228Z,10.15
2022-08-06T06:11:54.973Z,7.68
2022-08-06T06:14:32.443Z,7.72
2022-08-06T06:17:16.149Z,10.40
2022-08-06T06:20:08.455Z,9.73
2022-08-06T06:23:13.171Z,7.32
2022-08-06T06:26:32.524Z,6.78
2022-08-06T06:30:02.163Z,7.93
2022-08-06T06:32:31.522Z,7.90
2022-08-06T06:35:32.697Z,5.78
2022-08-06T06:38:05.398Z,6.35
2022-08-06T06:40:53.423Z,8.30
2022-08-06T06:43:43.770Z,7.78
2022-08-06T06:46:37.465Z,7.57
2022-08-06T06:49:59.400Z,5.50
2022-08-06T06:52:26.546Z,10.18
2022-08-06T06:55:19.053Z,6.72
2022-08-06T06:58:10.402Z,10.63
2022-08-06T07:00:47.303Z,7.60
2022-08-06T07:03:43.356Z,6.82
2022-08-06T07:06:31.641Z,7.53
2022-08-06T07:09:15.288Z,6.57
2022-08-06T07:12:03.160Z,7.87
2022-08-06T07:14:36.695Z,8.63
2022-08-06T07:17:44.785Z,6.78
2022-08-06T07:20:00.543Z,8.07
2022-08-06T07:22:32.716Z,6.97
2022-08-06T07:25:06.387Z,6.65
2022-08-06T07:27:44.949Z,7.00
2022-08-06T07:30:22.332Z,7.00
2022-08-06T07:32:57.905Z,4.85
2022-08-06T07:35:28.277Z,7.12
2022-08-06T07:38:02.948Z,6.93
2022-08-06T07:40:37.666Z,9.30
2022-08-06T07:43:24.297Z,6.12
2022-08-06T07:45:56.979Z,7.22
2022-08-06T07:48:46.297Z,7.82
2022-08-06T07:51:33.448Z,8.50
2022-08-06T07:54:09.740Z,6.97
2022-08-06T07:57:00.640Z,8.57
2022-08-06T07:59:32.274Z,6.40
2022-08-06T08:02:04.508Z,8.10
2022-08-06T08:04:56.025Z,5.30
2022-08-06T08:07:53.245Z,7.53
2022-08-06T08:10:17.176Z,6.53
2022-08-06T08:12:52.355Z,5.65
2022-08-06T08:15:23.305Z,6.82
2022-08-06T08:17:56.252Z,6.60
2022-08-06T08:20:34.047Z,7.60
2022-08-06T08:23:07.869Z,5.18
2022-08-06T08:25:58.030Z,5.80
2022-08-06T08:28:29.613Z,5.28
2022-08-06T08:31:15.465Z,7.15
2022-08-06T08:33:52.183Z,6.75
2022-08-06T08:36:30.266Z,5.40
2022-08-06T08:39:00.854Z,7.78
2022-08-06T08:41:49.314Z,5.25
2022-08-06T08:44:27.180Z,8.32
2022-08-06T08:46:59.440Z,6.07
2022-08-06T08:49:47.173Z,5.65
2022-08-06T08:52:32.215Z,5.72
2022-08-06T08:57:09.961Z,5.68
2022-08-06T08:58:38.157Z,6.57
2022-08-06T09:00:52.753Z,6.30
2022-08-06T09:03:24.603Z,7.43
2022-08-06T09:05:54.621Z,7.37
2022-08-06T09:09:01.341Z,6.80
2022-08-06T09:12:03.017Z,6.45
2022-08-06T09:14:10.570Z,4.90
2022-08-06T09:16:44.690Z,4.65
2022-08-06T09:19:21.338Z,6.47
2022-08-06T09:22:00.564Z,5.45
2022-08-06T09:24:33.609Z,6.18
2022-08-06T09:27:59.294Z,6.45
2022-08-06T09:30:25.237Z,5.53
2022-08-06T09:33:04.119Z,5.93
2022-08-06T09:35:59.660Z,9.48
2022-08-06T09:38:30.015Z,4.85
2022-08-06T09:41:06.872Z,6.18
2022-08-06T09:44:03.048Z,6.35
2022-08-06T09:46:48.892Z,4.68
2022-08-06T09:49:47.948Z,4.43
2022-08-06T09:52:22.086Z,5.00
2022-08-06T09:54:54.290Z,6.22
2022-08-06T09:57:36.255Z,6.93
2022-08-06T10:00:15.239Z,5.43
2022-08-06T10:02:51.138Z,5.62
2022-08-06T10:05:22.923Z,5.53
2022-08-06T10:08:13.955Z,5.15
2022-08-06T10:13:26.632Z,4.47
2022-08-06T10:16:04.191Z,6.03
2022-08-06T10:18:55.745Z,5.70
2022-08-06T10:21:33.278Z,5.70
2022-08-06T10:24:12.942Z,7.15
2022-08-06T10:26:43.092Z,10.18
2022-08-06T10:29:14.401Z,6.05
2022-08-06T10:31:52.871Z,5.15
2022-08-06T10:34:30.763Z,8.10
2022-08-06T10:37:47.274Z,6.05
2022-08-06T10:40:08.494Z,5.78
2022-08-06T10:42:41.656Z,4.85
2022-08-06T10:45:16.594Z,7.03
2022-08-06T10:49:01.403Z,5.47
2022-08-06T10:50:51.172Z,6.60
2022-08-06T10:54:02.200Z,13.25
2022-08-06T10:56:25.712Z,7.12
2022-08-06T11:01:51.246Z,8.60
2022-08-06T11:04:40.052Z,7.32
2022-08-06T11:08:08.560Z,6.45
2022-08-06T11:10:58.959Z,4.95
2022-08-06T11:13:52.290Z,5.75
2022-08-06T11:16:27.515Z,4.55
2022-08-06T11:19:10.145Z,5.65
2022-08-06T11:22:02.143Z,6.30
2022-08-06T11:24:37.967Z,5.87
2022-08-06T11:27:48.538Z,6.75
2022-08-06T11:30:26.314Z,6.30
2022-08-06T11:32:57.491Z,7.12
2022-08-06T11:35:47.459Z,6.45
2022-08-06T11:38:55.214Z,8.40
2022-08-06T11:41:50.926Z,6.22
2022-08-06T11:44:25.471Z,7.25
2022-08-06T11:47:14.191Z,8.25
2022-08-06T11:49:47.446Z,7.28
2022-08-06T11:52:41.290Z,8.88
2022-08-06T11:55:22.960Z,10.40
2022-08-06T11:58:23.413Z,8.30
2022-08-06T12:00:59.574Z,6.53
2022-08-06T12:03:44.238Z,9.10
2022-08-06T12:06:26.262Z,7.70
2022-08-06T12:09:22.789Z,6.75
2022-08-06T12:11:54.060Z,10.85
2022-08-06T12:14:47.224Z,10.63
2022-08-06T12:17:21.801Z,6.53
2022-08-06T12:20:01.979Z,13.68
2022-08-06T12:22:35.662Z,10.68
2022-08-06T12:25:11.078Z,12.20
2022-08-06T12:27:50.462Z,7.68
2022-08-06T12:30:36.764Z,8.68
2022-08-06T12:33:15.443Z,13.55
2022-08-06T12:36:01.931Z,9.95
2022-08-06T12:38:32.729Z,12.85
2022-08-06T12:41:10.538Z,9.52
2022-08-06T12:43:56.473Z,12.43
2022-08-06T12:46:29.387Z,9.05
2022-08-06T12:49:03.403Z,11.90
2022-08-06T12:51:32.364Z,8.63
2022-08-06T12:54:05.100Z,12.13
2022-08-06T12:56:38.205Z,7.37
2022-08-06T12:59:15.931Z,8.02
2022-08-06T13:02:07.318Z,8.32
2022-08-06T13:04:38.295Z,10.98
2022-08-06T13:07:08.859Z,8.52
2022-08-06T13:09:56.026Z,8.93
2022-08-06T13:12:29.280Z,6.85
2022-08-06T13:15:22.527Z,10.30
2022-08-06T13:18:30.307Z,7.22
2022-08-06T13:20:56.286Z,7.25
2022-08-06T13:23:29.970Z,8.40
2022-08-06T13:26:15.855Z,9.88
2022-08-06T13:30:32.823Z,7.50
2022-08-06T13:32:19.244Z,10.23
2022-08-06T13:34:58.944Z,9.35
2022-08-06T13:37:56.876Z,8.23
2022-08-06T13:40:46.829Z,8.98
2022-08-06T13:43:39.922Z,8.68
2022-08-06T13:46:17.104Z,11.18
2022-08-06T13:48:52.484Z,9.85
2022-08-06T13:51:27.741Z,20.33
2022-08-06T13:53:58.722Z,10.25
2022-08-06T13:56:29.960Z,10.13
2022-08-06T13:58:59.566Z,9.48
2022-08-06T14:01:44.198Z,7.30
2022-08-06T14:04:15.288Z,10.43
2022-08-06T14:06:48.329Z,18.95
2022-08-06T14:09:22.227Z,9.15
2022-08-06T14:11:55.961Z,16.70
2022-08-06T14:14:27.544Z,7.35
2022-08-06T14:16:57.199Z,6.87
2022-08-06T14:22:13.799Z,6.82
2022-08-06T14:24:47.699Z,6.90
2022-08-06T14:27:24.544Z,5.32
2022-08-06T14:30:28.235Z,9.32
2022-08-06T14:32:47.960Z,10.52
2022-08-06T14:35:18.615Z,6.87
2022-08-06T14:37:51.769Z,7.87
2022-08-06T14:41:01.002Z,17.58
2022-08-06T14:43:56.798Z,10.75
2022-08-06T14:46:30.221Z,9.43
2022-08-06T14:49:08.936Z,9.02
2022-08-06T14:52:19.140Z,5.47
2022-08-06T14:54:32.185Z,5.50
2022-08-06T14:57:14.582Z,5.82
2022-08-06T14:59:48.844Z,5.20
2022-08-06T15:02:24.017Z,7.05
2022-08-06T15:07:25.333Z,5.03
2022-08-06T15:10:06.499Z,4.70
2022-08-06T15:12:51.166Z,6.32
2022-08-06T15:15:36.817Z,5.82
2022-08-06T15:18:40.262Z,4.65
2022-08-06T15:21:10.206Z,4.93
2022-08-06T15:23:52.986Z,4.45
2022-08-06T15:26:47.183Z,6.10
2022-08-06T15:29:15.152Z,7.20
2022-08-06T15:31:45.625Z,5.10
2022-08-06T15:34:20.508Z,5.28
2022-08-06T15:37:02.912Z,6.60
2022-08-06T15:39:53.139Z,7.35
2022-08-06T15:42:24.034Z,3.97
2022-08-06T15:47:31.876Z,4.87
2022-08-06T15:50:05.201Z,5.72
2022-08-06T15:52:42.764Z,4.43
2022-08-06T15:55:16.126Z,4.07
2022-08-06T15:58:06.716Z,4.80
2022-08-06T16:00:35.972Z,3.60
2022-08-06T16:03:11.019Z,4.87
2022-08-06T16:06:10.530Z,5.65
2022-08-06T16:08:34.054Z,4.93
2022-08-06T16:11:08.662Z,3.10
2022-08-06T16:13:38.873Z,3.85
2022-08-06T16:16:08.572Z,3.72
2022-08-06T16:18:49.038Z,2.10
2022-08-06T16:21:17.644Z,3.25
2022-08-06T16:23:57.070Z,3.65
2022-08-06T16:26:42.850Z,2.95
2022-08-06T16:29:20.338Z,3.17
2022-08-06T16:31:54.138Z,2.90
2022-08-06T16:34:30.329Z,4.28
2022-08-06T16:37:01.352Z,4.43
2022-08-06T16:39:35.894Z,3.23
2022-08-06T16:42:17.720Z,3.65
2022-08-06T16:44:56.719Z,4.13
2022-08-06T16:48:21.290Z,3.58
2022-08-06T16:50:27.165Z,4.68
2022-08-06T16:55:50.259Z,5.00
2022-08-06T16:58:33.190Z,4.03
2022-08-06T17:03:56.438Z,3.10
2022-08-06T17:06:31.463Z,4.12
2022-08-06T17:09:16.159Z,2.97
2022-08-06T17:11:58.784Z,3.20
2022-08-06T17:14:32.651Z,4.10
2022-08-06T17:17:07.238Z,3.05
2022-08-06T17:19:41.672Z,3.78
2022-08-06T17:22:10.920Z,2.97
2022-08-06T17:24:42.230Z,2.17
2022-08-06T17:27:43.104Z,2.58
2022-08-06T17:30:08.276Z,3.28
2022-08-06T17:32:46.236Z,1.75
2022-08-06T17:35:16.435Z,3.10
2022-08-06T17:37:49.153Z,2.97
2022-08-06T17:40:30.649Z,2.53
2022-08-06T17:43:04.691Z,2.60
2022-08-06T17:45:35.099Z,3.03
2022-08-06T17:48:04.895Z,1.77
2022-08-06T17:50:40.637Z,1.92
2022-08-06T17:53:19.330Z,3.95
2022-08-06T17:56:00.443Z,3.67
2022-08-06T17:58:53.157Z,7.10
2022-08-06T18:01:44.760Z,3.78
2022-08-06T18:04:21.707Z,3.25
2022-08-06T18:06:54.559Z,3.05
2022-08-06T18:10:09.082Z,2.95
2022-08-06T18:12:13.035Z,3.92
2022-08-06T18:14:42.165Z,2.80
2022-08-06T18:17:16.078Z,1.87
2022-08-06T18:19:46.176Z,1.73
2022-08-06T18:22:23.193Z,2.25
2022-08-06T18:24:55.448Z,2.35
2022-08-06T18:27:55.241Z,3.40
2022-08-06T18:30:29.954Z,3.72
2022-08-06T18:33:09.841Z,5.25
2022-08-06T18:35:57.875Z,3.53
2022-08-06T18:38:31.844Z,1.52
2022-08-06T18:41:14.364Z,2.00
2022-08-06T18:43:54.764Z,3.37
2022-08-06T18:47:01.052Z,4.55
2022-08-06T18:49:20.823Z,2.53
2022-08-06T18:52:02.322Z,1.83
2022-08-06T18:54:30.506Z,2.92
2022-08-06T18:57:04.184Z,2.10
2022-08-06T18:59:34.296Z,1.70
2022-08-06T19:02:02.548Z,2.92
2022-08-06T19:04:30.687Z,2.22
2022-08-06T19:07:06.107Z,3.90
2022-08-06T19:09:37.236Z,2.45
2022-08-06T19:12:13.836Z,2.78
2022-08-06T19:14:49.889Z,2.83
2022-08-06T19:17:47.947Z,1.92
2022-08-06T19:20:19.917Z,2.87
2022-08-06T19:22:53.155Z,2.75
2022-08-06T19:25:41.806Z,2.40
2022-08-06T19:28:35.652Z,2.95
2022-08-06T19:31:04.030Z,2.35
2022-08-06T19:33:34.818Z,4.18
2022-08-06T19:38:45.263Z,3.30
2022-08-06T19:41:19.490Z,3.22
2022-08-06T19:44:28.458Z,2.78
2022-08-06T19:46:56.687Z,2.22
2022-08-06T19:49:40.004Z,3.50
2022-08-06T19:52:09.724Z,2.30
2022-08-06T19:54:41.872Z,3.55
2022-08-06T19:57:13.301Z,4.18
2022-08-06T20:00:55.976Z,3.05
2022-08-06T20:02:51.420Z,3.17
2022-08-06T20:06:17.706Z,5.03
2022-08-06T20:08:32.372Z,3.95
2022-08-06T20:11:02.693Z,3.42
2022-08-06T20:13:33.509Z,2.65
2022-08-06T20:16:09.838Z,3.12
2022-08-06T20:18:39.463Z,3.50
2022-08-06T20:23:41.694Z,3.05
2022-08-06T20:26:35.582Z,4.40
2022-08-06T20:29:10.488Z,3.67
2022-08-06T20:31:55.563Z,3.85
2022-08-06T20:34:27.652Z,3.78
2022-08-06T20:37:01.069Z,3.50
2022-08-06T20:39:31.634Z,3.80
2022-08-06T20:42:04.554Z,3.15
2022-08-06T20:44:36.592Z,3.05
2022-08-06T20:47:45.452Z,2.30
2022-08-06T20:50:04.063Z,4.85
2022-08-06T20:52:37.250Z,3.45
2022-08-06T20:55:09.798Z,3.55
2022-08-06T20:57:47.741Z,3.25
2022-08-06T21:00:28.003Z,4.95
2022-08-06T21:03:28.283Z,2.97
2022-08-06T21:05:51.343Z,3.35
2022-08-06T21:08:26.434Z,2.80
2022-08-06T21:10:57.317Z,3.40
2022-08-06T21:13:35.294Z,3.55
2022-08-06T21:16:14.673Z,2.70
2022-08-06T21:18:58.276Z,2.95
2022-08-06T21:21:31.764Z,3.45
2022-08-06T21:24:03.267Z,3.35
2022-08-06T21:26:35.890Z,3.87
2022-08-06T21:29:41.813Z,3.58
2022-08-06T21:31:58.210Z,3.60
2022-08-06T21:34:27.948Z,3.03
2022-08-06T21:36:58.192Z,4.12
2022-08-06T21:39:52.780Z,3.25
2022-08-06T21:42:17.774Z,5.62
2022-08-06T21:44:49.839Z,3.83
2022-08-06T21:47:19.487Z,3.42
2022-08-06T21:50:04.237Z,3.10
2022-08-06T21:52:37.772Z,2.85
2022-08-06T21:56:34.698Z,3.05
2022-08-06T21:58:02.893Z,5.80
2022-08-06T22:00:37.563Z,2.53
2022-08-06T22:04:34.684Z,3.37
2022-08-06T22:06:20.255Z,3.47
2022-08-06T22:08:53.675Z,3.25
2022-08-06T22:12:40.738Z,3.30
2022-08-06T22:14:19.829Z,3.53
2022-08-06T22:17:06.561Z,6.20
2022-08-06T22:19:43.493Z,4.05
2022-08-06T22:22:19.456Z,4.00
2022-08-06T22:24:54.071Z,3.17
2022-08-06T22:27:24.832Z,4.90
2022-08-06T22:30:26.976Z,3.08
2022-08-06T22:32:57.679Z,3.80
2022-08-06T22:35:38.305Z,3.17
2022-08-06T22:38:19.585Z,3.28
2022-08-06T22:41:01.279Z,3.53
2022-08-06T22:43:56.509Z,3.35
2022-08-06T22:46:21.870Z,4.78
2022-08-06T22:48:53.002Z,3.62
2022-08-06T22:51:34.514Z,3.40
2022-08-06T22:54:28.525Z,3.80
2022-08-06T22:57:05.457Z,4.22
2022-08-06T23:00:12.223Z,3.65
2022-08-06T23:02:28.855Z,3.28
2022-08-06T23:04:59.194Z,4.30
2022-08-06T23:07:43.442Z,4.53
2022-08-06T23:10:21.698Z,3.35
2022-08-06T23:12:55.000Z,3.20
2022-08-06T23:15:39.388Z,3.42
2022-08-06T23:18:12.655Z,3.08
2022-08-06T23:20:47.896Z,3.22
2022-08-06T23:23:22.165Z,3.40
2022-08-06T23:25:59.666Z,4.07
2022-08-06T23:28:32.071Z,3.70
2022-08-06T23:31:02.264Z,3.08
2022-08-06T23:33:38.754Z,3.00
2022-08-06T23:36:17.049Z,3.78
2022-08-06T23:38:50.706Z,2.92
2022-08-06T23:41:24.369Z,3.03
2022-08-06T23:44:18.144Z,3.60
2022-08-06T23:46:51.039Z,3.33
2022-08-06T23:49:23.758Z,3.15
2022-08-06T23:52:03.051Z,3.17
2022-08-06T23:54:38.344Z,3.65
2022-08-06T23:57:09.818Z,3.12
2022-08-06T23:59:48.388Z,3.42
